sensor_id;sensor_type;location;lat;lon;timestamp;temperature;humidity
33741;DHT22;20065;48.380;10.892;2022-09-09T00:01:04;15.80;99.90
33741;DHT22;20065;48.380;10.892;2022-09-09T00:04:03;15.80;99.90
33741;DHT22;20065;48.380;10.892;2022-09-09T00:22:24;16.10;99.90
33741;DHT22;20065;48.380;10.892;2022-09-09T00:26:01;16.00;99.90
33741;DHT22;20065;48.380;10.892;2022-09-09T00:29:00;15.90;99.90
33741;DHT22;20065;48.380;10.892;2022-09-09T00:31:49;15.90;99.90
33741;DHT22;20065;48.380;10.892;2022-09-09T00:34:51;15.90;99.90
33741;DHT22;20065;48.380;10.892;2022-09-09T00:37:38;15.90;99.90
33741;DHT22;20065;48.380;10.892;2022-09-09T00:40:35;15.70;99.90
33741;DHT22;20065;48.380;10.892;2022-09-09T00:43:27;15.70;99.90
33741;DHT22;20065;48.380;10.892;2022-09-09T00:56:31;15.20;99.90
33741;DHT22;20065;48.380;10.892;2022-09-09T00:59:28;15.00;99.90
33741;DHT22;20065;48.380;10.892;2022-09-09T01:05:42;14.90;99.90
33741;DHT22;20065;48.380;10.892;2022-09-09T01:14:56;15.30;99.90
33741;DHT22;20065;48.380;10.892;2022-09-09T01:23:38;15.50;99.90
33741;DHT22;20065;48.380;10.892;2022-09-09T01:26:54;16.10;99.90
33741;DHT22;20065;48.380;10.892;2022-09-09T01:29:45;15.50;99.90
33741;DHT22;20065;48.380;10.892;2022-09-09T01:32:53;15.40;99.90
33741;DHT22;20065;48.380;10.892;2022-09-09T01:35:53;15.40;99.90
33741;DHT22;20065;48.380;10.892;2022-09-09T01:38:43;15.30;99.90
33741;DHT22;20065;48.380;10.892;2022-09-09T01:41:29;15.30;99.90
33741;DHT22;20065;48.380;10.892;2022-09-09T01:44:25;15.30;99.90
33741;DHT22;20065;48.380;10.892;2022-09-09T01:47:13;15.20;99.90
33741;DHT22;20065;48.380;10.892;2022-09-09T01:50:16;15.10;99.90
33741;DHT22;20065;48.380;10.892;2022-09-09T01:53:03;15.10;99.90
33741;DHT22;20065;48.380;10.892;2022-09-09T01:56:02;15.00;99.90
33741;DHT22;20065;48.380;10.892;2022-09-09T02:02:18;15.00;99.90
33741;DHT22;20065;48.380;10.892;2022-09-09T02:05:37;15.10;99.90
33741;DHT22;20065;48.380;10.892;2022-09-09T02:08:28;14.90;99.90
33741;DHT22;20065;48.380;10.892;2022-09-09T02:11:24;14.80;99.90
33741;DHT22;20065;48.380;10.892;2022-09-09T02:14:23;14.80;99.90
33741;DHT22;20065;48.380;10.892;2022-09-09T02:17:13;14.80;99.90
33741;DHT22;20065;48.380;10.892;2022-09-09T02:20:15;14.90;99.90
33741;DHT22;20065;48.380;10.892;2022-09-09T02:23:07;14.90;99.90
33741;DHT22;20065;48.380;10.892;2022-09-09T02:25:57;14.80;99.90
33741;DHT22;20065;48.380;10.892;2022-09-09T02:28:46;14.80;99.90
33741;DHT22;20065;48.380;10.892;2022-09-09T02:31:34;14.90;99.90
33741;DHT22;20065;48.380;10.892;2022-09-09T02:34:27;14.80;99.90
33741;DHT22;20065;48.380;10.892;2022-09-09T02:37:18;14.80;99.90
33741;DHT22;20065;48.380;10.892;2022-09-09T02:40:10;14.80;99.90
33741;DHT22;20065;48.380;10.892;2022-09-09T02:43:00;14.70;99.90
33741;DHT22;20065;48.380;10.892;2022-09-09T02:49:14;14.60;99.90
33741;DHT22;20065;48.380;10.892;2022-09-09T02:52:07;14.50;99.90
33741;DHT22;20065;48.380;10.892;2022-09-09T02:55:02;14.60;99.90
33741;DHT22;20065;48.380;10.892;2022-09-09T02:57:51;14.50;99.90
33741;DHT22;20065;48.380;10.892;2022-09-09T03:00:39;14.50;99.90
33741;DHT22;20065;48.380;10.892;2022-09-09T03:03:27;14.50;99.90
33741;DHT22;20065;48.380;10.892;2022-09-09T03:06:13;14.60;99.90
33741;DHT22;20065;48.380;10.892;2022-09-09T03:09:00;14.60;99.90
33741;DHT22;20065;48.380;10.892;2022-09-09T03:11:48;14.70;99.90
33741;DHT22;20065;48.380;10.892;2022-09-09T03:14:36;14.90;99.90
33741;DHT22;20065;48.380;10.892;2022-09-09T03:17:22;14.80;99.90
33741;DHT22;20065;48.380;10.892;2022-09-09T03:20:13;14.70;99.90
33741;DHT22;20065;48.380;10.892;2022-09-09T03:23:00;14.60;99.90
33741;DHT22;20065;48.380;10.892;2022-09-09T03:25:47;14.60;99.90
33741;DHT22;20065;48.380;10.892;2022-09-09T03:28:36;14.60;99.90
33741;DHT22;20065;48.380;10.892;2022-09-09T03:31:22;14.50;99.90
33741;DHT22;20065;48.380;10.892;2022-09-09T03:34:09;14.60;99.90
33741;DHT22;20065;48.380;10.892;2022-09-09T03:36:56;14.60;99.90
33741;DHT22;20065;48.380;10.892;2022-09-09T03:39:42;14.60;99.90
33741;DHT22;20065;48.380;10.892;2022-09-09T03:42:29;14.70;99.90
33741;DHT22;20065;48.380;10.892;2022-09-09T03:45:17;14.70;99.90
33741;DHT22;20065;48.380;10.892;2022-09-09T03:48:03;14.50;99.90
33741;DHT22;20065;48.380;10.892;2022-09-09T03:50:53;14.50;99.90
33741;DHT22;20065;48.380;10.892;2022-09-09T03:53:39;14.70;99.90
33741;DHT22;20065;48.380;10.892;2022-09-09T03:56:26;14.80;99.90
33741;DHT22;20065;48.380;10.892;2022-09-09T03:59:13;14.90;99.90
33741;DHT22;20065;48.380;10.892;2022-09-09T04:02:01;14.90;99.90
33741;DHT22;20065;48.380;10.892;2022-09-09T04:04:48;14.90;99.90
33741;DHT22;20065;48.380;10.892;2022-09-09T04:07:35;14.90;99.90
33741;DHT22;20065;48.380;10.892;2022-09-09T04:10:21;14.90;99.90
33741;DHT22;20065;48.380;10.892;2022-09-09T04:13:07;14.90;99.90
33741;DHT22;20065;48.380;10.892;2022-09-09T04:15:55;14.90;99.90
33741;DHT22;20065;48.380;10.892;2022-09-09T04:18:42;14.80;99.90
33741;DHT22;20065;48.380;10.892;2022-09-09T04:21:29;14.90;99.90
33741;DHT22;20065;48.380;10.892;2022-09-09T04:24:15;14.90;99.90
33741;DHT22;20065;48.380;10.892;2022-09-09T04:27:02;14.90;99.90
33741;DHT22;20065;48.380;10.892;2022-09-09T04:29:50;14.80;99.90
33741;DHT22;20065;48.380;10.892;2022-09-09T04:32:36;14.70;99.90
33741;DHT22;20065;48.380;10.892;2022-09-09T04:35:23;14.70;99.90
33741;DHT22;20065;48.380;10.892;2022-09-09T04:38:09;14.70;99.90
33741;DHT22;20065;48.380;10.892;2022-09-09T04:40:55;14.80;99.90
33741;DHT22;20065;48.380;10.892;2022-09-09T04:43:42;14.90;99.90
33741;DHT22;20065;48.380;10.892;2022-09-09T04:46:28;14.90;99.90
33741;DHT22;20065;48.380;10.892;2022-09-09T04:49:16;15.00;99.90
33741;DHT22;20065;48.380;10.892;2022-09-09T04:52:03;14.90;99.90
33741;DHT22;20065;48.380;10.892;2022-09-09T04:54:51;14.90;99.90
33741;DHT22;20065;48.380;10.892;2022-09-09T04:57:40;14.90;99.90
33741;DHT22;20065;48.380;10.892;2022-09-09T05:00:31;14.90;99.90
33741;DHT22;20065;48.380;10.892;2022-09-09T05:03:18;14.80;99.90
33741;DHT22;20065;48.380;10.892;2022-09-09T05:06:10;14.90;99.90
33741;DHT22;20065;48.380;10.892;2022-09-09T05:08:57;15.00;99.90
33741;DHT22;20065;48.380;10.892;2022-09-09T05:11:47;15.00;99.90
33741;DHT22;20065;48.380;10.892;2022-09-09T05:14:44;15.10;99.90
33741;DHT22;20065;48.380;10.892;2022-09-09T05:17:30;15.10;99.90
33741;DHT22;20065;48.380;10.892;2022-09-09T05:20:16;15.10;99.90
33741;DHT22;20065;48.380;10.892;2022-09-09T05:23:02;15.10;99.90
33741;DHT22;20065;48.380;10.892;2022-09-09T05:25:56;15.10;99.90
33741;DHT22;20065;48.380;10.892;2022-09-09T05:28:43;15.10;99.90
33741;DHT22;20065;48.380;10.892;2022-09-09T05:31:30;15.10;99.90
33741;DHT22;20065;48.380;10.892;2022-09-09T05:34:16;15.00;99.90
33741;DHT22;20065;48.380;10.892;2022-09-09T05:37:03;14.90;99.90
33741;DHT22;20065;48.380;10.892;2022-09-09T05:39:51;15.00;99.90
33741;DHT22;20065;48.380;10.892;2022-09-09T05:42:37;15.00;99.90
33741;DHT22;20065;48.380;10.892;2022-09-09T05:45:24;14.90;99.90
33741;DHT22;20065;48.380;10.892;2022-09-09T05:48:11;14.60;99.90
33741;DHT22;20065;48.380;10.892;2022-09-09T05:50:58;14.50;99.90
33741;DHT22;20065;48.380;10.892;2022-09-09T05:53:46;14.30;99.90
33741;DHT22;20065;48.380;10.892;2022-09-09T05:56:33;14.30;99.90
33741;DHT22;20065;48.380;10.892;2022-09-09T05:59:20;14.30;99.90
33741;DHT22;20065;48.380;10.892;2022-09-09T06:02:08;14.50;99.90
33741;DHT22;20065;48.380;10.892;2022-09-09T06:04:56;14.50;99.90
33741;DHT22;20065;48.380;10.892;2022-09-09T06:07:43;14.70;99.90
33741;DHT22;20065;48.380;10.892;2022-09-09T06:10:30;14.80;99.90
33741;DHT22;20065;48.380;10.892;2022-09-09T06:13:17;14.90;99.90
33741;DHT22;20065;48.380;10.892;2022-09-09T06:16:04;15.00;99.90
33741;DHT22;20065;48.380;10.892;2022-09-09T06:18:51;15.00;99.90
33741;DHT22;20065;48.380;10.892;2022-09-09T06:21:38;15.10;99.90
33741;DHT22;20065;48.380;10.892;2022-09-09T06:24:26;15.20;99.90
33741;DHT22;20065;48.380;10.892;2022-09-09T06:27:13;15.20;99.90
33741;DHT22;20065;48.380;10.892;2022-09-09T06:29:59;15.10;99.90
33741;DHT22;20065;48.380;10.892;2022-09-09T06:32:48;15.20;99.90
33741;DHT22;20065;48.380;10.892;2022-09-09T06:35:35;15.20;99.90
33741;DHT22;20065;48.380;10.892;2022-09-09T06:38:22;15.10;99.90
33741;DHT22;20065;48.380;10.892;2022-09-09T06:41:10;15.50;99.90
33741;DHT22;20065;48.380;10.892;2022-09-09T06:43:58;15.20;99.90
33741;DHT22;20065;48.380;10.892;2022-09-09T06:46:52;15.40;99.90
33741;DHT22;20065;48.380;10.892;2022-09-09T06:49:39;15.60;99.90
33741;DHT22;20065;48.380;10.892;2022-09-09T06:52:28;15.60;99.90
33741;DHT22;20065;48.380;10.892;2022-09-09T06:55:15;15.60;99.90
33741;DHT22;20065;48.380;10.892;2022-09-09T06:58:08;15.80;99.90
33741;DHT22;20065;48.380;10.892;2022-09-09T07:01:05;15.90;99.90
33741;DHT22;20065;48.380;10.892;2022-09-09T07:03:54;16.00;99.90
33741;DHT22;20065;48.380;10.892;2022-09-09T07:06:45;16.00;99.90
33741;DHT22;20065;48.380;10.892;2022-09-09T07:09:45;16.10;99.90
33741;DHT22;20065;48.380;10.892;2022-09-09T07:12:31;16.10;99.90
33741;DHT22;20065;48.380;10.892;2022-09-09T07:15:20;16.40;99.90
33741;DHT22;20065;48.380;10.892;2022-09-09T07:18:07;16.30;99.90
33741;DHT22;20065;48.380;10.892;2022-09-09T07:20:56;16.10;99.90
33741;DHT22;20065;48.380;10.892;2022-09-09T07:23:43;16.10;99.90
33741;DHT22;20065;48.380;10.892;2022-09-09T07:26:31;16.30;99.90
33741;DHT22;20065;48.380;10.892;2022-09-09T07:29:19;15.80;99.90
33741;DHT22;20065;48.380;10.892;2022-09-09T07:32:05;15.90;99.90
33741;DHT22;20065;48.380;10.892;2022-09-09T07:34:55;16.00;99.90
33741;DHT22;20065;48.380;10.892;2022-09-09T07:37:45;15.50;99.90
33741;DHT22;20065;48.380;10.892;2022-09-09T07:40:35;15.60;99.90
33741;DHT22;20065;48.380;10.892;2022-09-09T07:43:26;15.60;99.90
33741;DHT22;20065;48.380;10.892;2022-09-09T07:46:14;15.50;99.90
33741;DHT22;20065;48.380;10.892;2022-09-09T07:49:02;15.60;99.90
33741;DHT22;20065;48.380;10.892;2022-09-09T07:51:52;15.70;99.90
33741;DHT22;20065;48.380;10.892;2022-09-09T07:54:38;15.90;99.90
33741;DHT22;20065;48.380;10.892;2022-09-09T07:57:26;15.70;99.90
33741;DHT22;20065;48.380;10.892;2022-09-09T08:00:14;16.00;99.90
33741;DHT22;20065;48.380;10.892;2022-09-09T08:03:04;16.10;99.90
33741;DHT22;20065;48.380;10.892;2022-09-09T08:05:52;16.30;99.90
33741;DHT22;20065;48.380;10.892;2022-09-09T08:08:38;16.60;99.90
33741;DHT22;20065;48.380;10.892;2022-09-09T08:11:28;16.50;99.90
33741;DHT22;20065;48.380;10.892;2022-09-09T08:14:15;16.20;99.90
33741;DHT22;20065;48.380;10.892;2022-09-09T08:17:02;15.80;99.90
33741;DHT22;20065;48.380;10.892;2022-09-09T08:19:50;15.90;99.90
33741;DHT22;20065;48.380;10.892;2022-09-09T08:22:41;16.00;99.90
33741;DHT22;20065;48.380;10.892;2022-09-09T08:25:28;15.90;99.90
33741;DHT22;20065;48.380;10.892;2022-09-09T08:28:15;16.30;99.90
33741;DHT22;20065;48.380;10.892;2022-09-09T08:31:14;16.10;99.90
33741;DHT22;20065;48.380;10.892;2022-09-09T08:34:01;16.20;99.90
33741;DHT22;20065;48.380;10.892;2022-09-09T08:36:51;16.60;99.90
33741;DHT22;20065;48.380;10.892;2022-09-09T08:39:40;16.90;99.90
33741;DHT22;20065;48.380;10.892;2022-09-09T08:42:43;17.10;99.90
33741;DHT22;20065;48.380;10.892;2022-09-09T08:45:50;16.90;99.90
33741;DHT22;20065;48.380;10.892;2022-09-09T08:51:41;16.90;99.90
33741;DHT22;20065;48.380;10.892;2022-09-09T08:54:33;16.90;99.90
33741;DHT22;20065;48.380;10.892;2022-09-09T08:57:26;16.80;99.90
33741;DHT22;20065;48.380;10.892;2022-09-09T09:00:13;16.90;99.90
33741;DHT22;20065;48.380;10.892;2022-09-09T09:03:10;17.20;99.90
33741;DHT22;20065;48.380;10.892;2022-09-09T09:10:09;17.50;99.90
33741;DHT22;20065;48.380;10.892;2022-09-09T09:12:58;17.60;99.90
33741;DHT22;20065;48.380;10.892;2022-09-09T09:15:49;17.30;99.90
33741;DHT22;20065;48.380;10.892;2022-09-09T09:18:36;17.30;99.90
33741;DHT22;20065;48.380;10.892;2022-09-09T09:21:43;17.50;99.90
33741;DHT22;20065;48.380;10.892;2022-09-09T09:27:34;18.30;99.90
33741;DHT22;20065;48.380;10.892;2022-09-09T09:30:26;18.60;99.90
33741;DHT22;20065;48.380;10.892;2022-09-09T09:33:36;17.90;99.90
33741;DHT22;20065;48.380;10.892;2022-09-09T09:36:41;17.90;99.90
33741;DHT22;20065;48.380;10.892;2022-09-09T09:39:33;17.90;99.90
33741;DHT22;20065;48.380;10.892;2022-09-09T09:42:28;17.90;99.90
33741;DHT22;20065;48.380;10.892;2022-09-09T09:45:35;17.80;99.90
33741;DHT22;20065;48.380;10.892;2022-09-09T09:48:25;18.10;99.90
33741;DHT22;20065;48.380;10.892;2022-09-09T09:51:16;18.40;99.90
33741;DHT22;20065;48.380;10.892;2022-09-09T09:54:14;18.70;99.90
33741;DHT22;20065;48.380;10.892;2022-09-09T09:57:14;18.10;99.90
33741;DHT22;20065;48.380;10.892;2022-09-09T10:00:21;18.40;99.90
33741;DHT22;20065;48.380;10.892;2022-09-09T10:03:30;18.70;99.90
33741;DHT22;20065;48.380;10.892;2022-09-09T10:06:29;18.70;99.90
33741;DHT22;20065;48.380;10.892;2022-09-09T10:09:25;18.70;99.90
33741;DHT22;20065;48.380;10.892;2022-09-09T10:18:36;18.30;99.90
33741;DHT22;20065;48.380;10.892;2022-09-09T10:28:23;19.10;99.90
33741;DHT22;20065;48.380;10.892;2022-09-09T10:31:30;19.10;99.90
33741;DHT22;20065;48.380;10.892;2022-09-09T10:34:43;19.30;99.90
33741;DHT22;20065;48.380;10.892;2022-09-09T10:53:35;19.40;99.90
33741;DHT22;20065;48.380;10.892;2022-09-09T10:56:24;18.90;99.90
33741;DHT22;20065;48.380;10.892;2022-09-09T10:59:21;18.50;99.90
33741;DHT22;20065;48.380;10.892;2022-09-09T11:02:17;18.70;99.90
33741;DHT22;20065;48.380;10.892;2022-09-09T11:05:21;19.00;99.90
33741;DHT22;20065;48.380;10.892;2022-09-09T11:08:21;19.20;99.90
33741;DHT22;20065;48.380;10.892;2022-09-09T11:11:46;19.50;99.90
33741;DHT22;20065;48.380;10.892;2022-09-09T11:14:43;19.50;99.90
33741;DHT22;20065;48.380;10.892;2022-09-09T11:17:44;19.70;99.90
33741;DHT22;20065;48.380;10.892;2022-09-09T11:20:33;19.50;99.90
33741;DHT22;20065;48.380;10.892;2022-09-09T11:23:30;19.40;99.90
33741;DHT22;20065;48.380;10.892;2022-09-09T11:26:35;19.60;99.90
33741;DHT22;20065;48.380;10.892;2022-09-09T11:29:38;19.90;99.90
33741;DHT22;20065;48.380;10.892;2022-09-09T11:36:05;19.30;99.90
33741;DHT22;20065;48.380;10.892;2022-09-09T11:42:18;19.20;99.90
33741;DHT22;20065;48.380;10.892;2022-09-09T11:48:26;19.40;99.90
33741;DHT22;20065;48.380;10.892;2022-09-09T11:54:30;19.80;99.90
33741;DHT22;20065;48.380;10.892;2022-09-09T11:57:32;20.10;99.90
33741;DHT22;20065;48.380;10.892;2022-09-09T12:03:55;19.80;99.90
33741;DHT22;20065;48.380;10.892;2022-09-09T12:06:54;19.70;99.90
33741;DHT22;20065;48.380;10.892;2022-09-09T12:09:55;19.90;99.90
33741;DHT22;20065;48.380;10.892;2022-09-09T12:12:42;19.70;99.90
33741;DHT22;20065;48.380;10.892;2022-09-09T12:15:29;19.50;99.90
33741;DHT22;20065;48.380;10.892;2022-09-09T12:18:33;19.70;99.90
33741;DHT22;20065;48.380;10.892;2022-09-09T12:21:58;20.30;99.90
33741;DHT22;20065;48.380;10.892;2022-09-09T12:24:51;19.90;99.90
33741;DHT22;20065;48.380;10.892;2022-09-09T12:33:49;19.70;99.90
33741;DHT22;20065;48.380;10.892;2022-09-09T12:36:36;19.70;99.90
33741;DHT22;20065;48.380;10.892;2022-09-09T12:39:34;19.90;99.90
33741;DHT22;20065;48.380;10.892;2022-09-09T12:42:22;19.80;99.90
33741;DHT22;20065;48.380;10.892;2022-09-09T12:48:07;19.60;99.90
33741;DHT22;20065;48.380;10.892;2022-09-09T12:50:54;19.30;99.90
33741;DHT22;20065;48.380;10.892;2022-09-09T12:53:42;19.30;99.90
33741;DHT22;20065;48.380;10.892;2022-09-09T12:56:30;19.50;99.90
33741;DHT22;20065;48.380;10.892;2022-09-09T13:16:39;21.10;99.90
33741;DHT22;20065;48.380;10.892;2022-09-09T13:19:25;21.50;99.90
33741;DHT22;20065;48.380;10.892;2022-09-09T13:22:31;21.30;99.90
33741;DHT22;20065;48.380;10.892;2022-09-09T13:25:28;21.10;99.90
33741;DHT22;20065;48.380;10.892;2022-09-09T13:28:21;21.70;99.90
33741;DHT22;20065;48.380;10.892;2022-09-09T13:31:24;21.90;99.90
33741;DHT22;20065;48.380;10.892;2022-09-09T13:34:25;21.70;99.90
33741;DHT22;20065;48.380;10.892;2022-09-09T13:37:33;21.50;99.90
33741;DHT22;20065;48.380;10.892;2022-09-09T13:40:22;21.70;99.90
33741;DHT22;20065;48.380;10.892;2022-09-09T13:43:21;22.00;99.90
33741;DHT22;20065;48.380;10.892;2022-09-09T13:49:23;22.90;99.90
33741;DHT22;20065;48.380;10.892;2022-09-09T13:52:17;23.10;99.90
33741;DHT22;20065;48.380;10.892;2022-09-09T13:55:04;22.00;99.90
33741;DHT22;20065;48.380;10.892;2022-09-09T13:57:56;21.00;99.90
33741;DHT22;20065;48.380;10.892;2022-09-09T14:00:42;20.10;99.90
33741;DHT22;20065;48.380;10.892;2022-09-09T14:03:30;19.70;99.90
33741;DHT22;20065;48.380;10.892;2022-09-09T14:06:16;19.60;99.90
33741;DHT22;20065;48.380;10.892;2022-09-09T14:09:10;19.40;99.90
33741;DHT22;20065;48.380;10.892;2022-09-09T14:11:56;18.60;99.90
33741;DHT22;20065;48.380;10.892;2022-09-09T14:17:29;15.30;99.90
33741;DHT22;20065;48.380;10.892;2022-09-09T14:20:17;15.20;99.90
33741;DHT22;20065;48.380;10.892;2022-09-09T14:23:03;15.40;99.90
33741;DHT22;20065;48.380;10.892;2022-09-09T14:25:49;15.30;99.90
33741;DHT22;20065;48.380;10.892;2022-09-09T14:28:36;15.00;99.90
33741;DHT22;20065;48.380;10.892;2022-09-09T14:31:23;15.10;99.90
33741;DHT22;20065;48.380;10.892;2022-09-09T14:34:10;14.90;99.90
33741;DHT22;20065;48.380;10.892;2022-09-09T14:36:56;15.10;99.90
33741;DHT22;20065;48.380;10.892;2022-09-09T14:39:43;15.50;99.90
33741;DHT22;20065;48.380;10.892;2022-09-09T14:42:29;15.50;99.90
33741;DHT22;20065;48.380;10.892;2022-09-09T14:45:16;15.40;99.90
33741;DHT22;20065;48.380;10.892;2022-09-09T14:48:03;15.50;99.90
33741;DHT22;20065;48.380;10.892;2022-09-09T14:50:49;15.60;99.90
33741;DHT22;20065;48.380;10.892;2022-09-09T14:53:35;15.90;99.90
33741;DHT22;20065;48.380;10.892;2022-09-09T14:56:24;16.20;99.90
33741;DHT22;20065;48.380;10.892;2022-09-09T14:59:10;16.30;99.90
33741;DHT22;20065;48.380;10.892;2022-09-09T15:01:56;16.40;99.90
33741;DHT22;20065;48.380;10.892;2022-09-09T15:04:42;16.40;99.90
33741;DHT22;20065;48.380;10.892;2022-09-09T15:07:30;16.60;99.90
33741;DHT22;20065;48.380;10.892;2022-09-09T15:10:17;16.60;99.90
33741;DHT22;20065;48.380;10.892;2022-09-09T15:13:03;16.90;99.90
33741;DHT22;20065;48.380;10.892;2022-09-09T15:15:50;17.10;99.90
33741;DHT22;20065;48.380;10.892;2022-09-09T15:18:37;17.20;99.90
33741;DHT22;20065;48.380;10.892;2022-09-09T15:21:31;17.20;99.90
33741;DHT22;20065;48.380;10.892;2022-09-09T15:24:17;17.20;99.90
33741;DHT22;20065;48.380;10.892;2022-09-09T15:27:04;17.20;99.90
33741;DHT22;20065;48.380;10.892;2022-09-09T15:29:50;17.20;99.90
33741;DHT22;20065;48.380;10.892;2022-09-09T15:32:37;17.30;99.90
33741;DHT22;20065;48.380;10.892;2022-09-09T15:35:24;17.30;99.90
33741;DHT22;20065;48.380;10.892;2022-09-09T15:38:10;17.40;99.90
33741;DHT22;20065;48.380;10.892;2022-09-09T15:40:57;17.40;99.90
33741;DHT22;20065;48.380;10.892;2022-09-09T15:43:49;17.30;99.90
33741;DHT22;20065;48.380;10.892;2022-09-09T15:46:38;17.50;99.90
33741;DHT22;20065;48.380;10.892;2022-09-09T15:49:26;17.40;99.90
33741;DHT22;20065;48.380;10.892;2022-09-09T15:52:12;17.50;99.90
33741;DHT22;20065;48.380;10.892;2022-09-09T15:54:58;17.50;99.90
33741;DHT22;20065;48.380;10.892;2022-09-09T15:57:46;17.40;99.90
33741;DHT22;20065;48.380;10.892;2022-09-09T16:00:32;17.70;99.90
33741;DHT22;20065;48.380;10.892;2022-09-09T16:03:20;17.90;99.90
33741;DHT22;20065;48.380;10.892;2022-09-09T16:06:06;17.80;99.90
33741;DHT22;20065;48.380;10.892;2022-09-09T16:08:53;18.00;99.90
33741;DHT22;20065;48.380;10.892;2022-09-09T16:11:40;17.90;99.90
33741;DHT22;20065;48.380;10.892;2022-09-09T16:14:26;17.90;99.90
33741;DHT22;20065;48.380;10.892;2022-09-09T16:17:13;17.90;99.90
33741;DHT22;20065;48.380;10.892;2022-09-09T16:20:00;18.00;99.90
33741;DHT22;20065;48.380;10.892;2022-09-09T16:22:46;18.00;99.90
33741;DHT22;20065;48.380;10.892;2022-09-09T16:25:32;18.30;99.90
33741;DHT22;20065;48.380;10.892;2022-09-09T16:28:18;18.20;99.90
33741;DHT22;20065;48.380;10.892;2022-09-09T16:31:09;18.20;99.90
33741;DHT22;20065;48.380;10.892;2022-09-09T16:33:56;18.30;99.90
33741;DHT22;20065;48.380;10.892;2022-09-09T16:36:43;18.40;99.90
33741;DHT22;20065;48.380;10.892;2022-09-09T16:39:29;18.30;99.90
33741;DHT22;20065;48.380;10.892;2022-09-09T16:42:16;18.30;99.90
33741;DHT22;20065;48.380;10.892;2022-09-09T16:45:03;18.40;99.90
33741;DHT22;20065;48.380;10.892;2022-09-09T16:47:49;18.40;99.90
33741;DHT22;20065;48.380;10.892;2022-09-09T16:50:35;18.50;99.90
33741;DHT22;20065;48.380;10.892;2022-09-09T16:53:21;18.50;99.90
33741;DHT22;20065;48.380;10.892;2022-09-09T16:56:09;18.90;99.90
33741;DHT22;20065;48.380;10.892;2022-09-09T16:58:57;18.50;99.90
33741;DHT22;20065;48.380;10.892;2022-09-09T17:01:46;18.40;99.90
33741;DHT22;20065;48.380;10.892;2022-09-09T17:04:32;18.40;99.90
33741;DHT22;20065;48.380;10.892;2022-09-09T17:07:19;18.30;99.90
33741;DHT22;20065;48.380;10.892;2022-09-09T17:10:05;18.20;99.90
33741;DHT22;20065;48.380;10.892;2022-09-09T17:12:52;18.10;99.90
33741;DHT22;20065;48.380;10.892;2022-09-09T17:15:42;18.20;99.90
33741;DHT22;20065;48.380;10.892;2022-09-09T17:18:28;18.10;99.90
33741;DHT22;20065;48.380;10.892;2022-09-09T17:21:17;17.90;99.90
33741;DHT22;20065;48.380;10.892;2022-09-09T17:24:04;17.80;99.90
33741;DHT22;20065;48.380;10.892;2022-09-09T17:26:53;17.70;99.90
33741;DHT22;20065;48.380;10.892;2022-09-09T17:29:40;17.80;99.90
33741;DHT22;20065;48.380;10.892;2022-09-09T17:32:26;17.70;99.90
33741;DHT22;20065;48.380;10.892;2022-09-09T17:35:12;17.70;99.90
33741;DHT22;20065;48.380;10.892;2022-09-09T17:37:59;17.60;99.90
33741;DHT22;20065;48.380;10.892;2022-09-09T17:40:45;17.50;99.90
33741;DHT22;20065;48.380;10.892;2022-09-09T17:43:32;17.40;99.90
33741;DHT22;20065;48.380;10.892;2022-09-09T17:46:29;17.50;99.90
33741;DHT22;20065;48.380;10.892;2022-09-09T17:49:17;17.60;99.90
33741;DHT22;20065;48.380;10.892;2022-09-09T17:52:06;17.70;99.90
33741;DHT22;20065;48.380;10.892;2022-09-09T17:54:54;17.80;99.90
33741;DHT22;20065;48.380;10.892;2022-09-09T17:57:42;17.60;99.90
33741;DHT22;20065;48.380;10.892;2022-09-09T18:00:29;17.60;99.90
33741;DHT22;20065;48.380;10.892;2022-09-09T18:03:16;17.70;99.90
33741;DHT22;20065;48.380;10.892;2022-09-09T18:06:04;17.70;99.90
33741;DHT22;20065;48.380;10.892;2022-09-09T18:11:44;15.70;99.90
33741;DHT22;20065;48.380;10.892;2022-09-09T18:14:31;13.40;99.90
33741;DHT22;20065;48.380;10.892;2022-09-09T18:17:18;12.90;99.90
33741;DHT22;20065;48.380;10.892;2022-09-09T18:20:04;12.80;99.90
33741;DHT22;20065;48.380;10.892;2022-09-09T18:22:50;13.00;99.90
33741;DHT22;20065;48.380;10.892;2022-09-09T18:25:40;13.10;99.90
33741;DHT22;20065;48.380;10.892;2022-09-09T18:28:27;13.10;99.90
33741;DHT22;20065;48.380;10.892;2022-09-09T18:31:14;13.10;99.90
33741;DHT22;20065;48.380;10.892;2022-09-09T18:34:02;13.00;99.90
33741;DHT22;20065;48.380;10.892;2022-09-09T18:36:51;13.00;99.90
33741;DHT22;20065;48.380;10.892;2022-09-09T18:39:38;13.00;99.90
33741;DHT22;20065;48.380;10.892;2022-09-09T18:42:24;13.30;99.90
33741;DHT22;20065;48.380;10.892;2022-09-09T18:45:11;13.20;99.90
33741;DHT22;20065;48.380;10.892;2022-09-09T18:47:57;13.10;99.90
33741;DHT22;20065;48.380;10.892;2022-09-09T18:50:43;13.10;99.90
33741;DHT22;20065;48.380;10.892;2022-09-09T18:53:30;13.20;99.90
33741;DHT22;20065;48.380;10.892;2022-09-09T18:56:16;13.40;99.90
33741;DHT22;20065;48.380;10.892;2022-09-09T18:59:04;13.20;99.90
33741;DHT22;20065;48.380;10.892;2022-09-09T19:01:52;13.20;99.90
33741;DHT22;20065;48.380;10.892;2022-09-09T19:04:38;13.20;99.90
33741;DHT22;20065;48.380;10.892;2022-09-09T19:07:28;13.20;99.90
33741;DHT22;20065;48.380;10.892;2022-09-09T19:10:14;13.20;99.90
33741;DHT22;20065;48.380;10.892;2022-09-09T19:13:00;13.20;99.90
33741;DHT22;20065;48.380;10.892;2022-09-09T19:15:46;13.20;99.90
33741;DHT22;20065;48.380;10.892;2022-09-09T19:18:33;13.20;99.90
33741;DHT22;20065;48.380;10.892;2022-09-09T19:21:24;13.10;99.90
33741;DHT22;20065;48.380;10.892;2022-09-09T19:24:21;13.20;99.90
33741;DHT22;20065;48.380;10.892;2022-09-09T19:27:08;13.20;99.90
33741;DHT22;20065;48.380;10.892;2022-09-09T19:29:54;13.20;99.90
33741;DHT22;20065;48.380;10.892;2022-09-09T19:32:41;13.30;99.90
33741;DHT22;20065;48.380;10.892;2022-09-09T19:35:28;13.40;99.90
33741;DHT22;20065;48.380;10.892;2022-09-09T19:38:14;13.20;99.90
33741;DHT22;20065;48.380;10.892;2022-09-09T19:41:05;13.10;99.90
33741;DHT22;20065;48.380;10.892;2022-09-09T19:43:55;13.20;99.90
33741;DHT22;20065;48.380;10.892;2022-09-09T19:46:49;13.20;99.90
33741;DHT22;20065;48.380;10.892;2022-09-09T19:49:41;13.40;99.90
33741;DHT22;20065;48.380;10.892;2022-09-09T19:52:28;13.30;99.90
33741;DHT22;20065;48.380;10.892;2022-09-09T19:55:14;13.40;99.90
33741;DHT22;20065;48.380;10.892;2022-09-09T19:58:00;13.40;99.90